KNUW

Whidbey Island NAS / Ault Field Airport

Oak Harbor, Washington, USA
METAR KNUW 151456Z 11008KT 10SM FEW020 SCT110 BKN160 07/03 A3004 RMK SLP171 T00720028 58004
Observed Flight Rules
Dec-15 @ 14:56 UTC (an hour ago) Visual Flight Rules
Wind Visibility Clouds
110° at 8 knots 10 miles
  • Few at 2,000' AGL
  • Scattered at 11,000' AGL
  • Broken at 16,000' AGL
Temperatures Readings
Current 7°C / 45°F
Dewpoint 3°C / 37°F
Humidity 76%
Altimeter 30.04" Hg
Pressure 1017.1 hPa
Elevation 14
METAR KNUW 151456Z 11008KT 10SM FEW020 SCT110 BKN160 07/03 A3004 RMK SLP171 T00720028 58004
Observed Flight Rules
Dec-15 @ 14:56 UTC
(an hour ago)
VFR
Wind Visibility
110° at 8 knots 10 miles
Clouds
  • Few at 2,000' AGL
  • Scattered at 11,000' AGL
  • Broken at 16,000' AGL
Temperature Dewpoint
7°C / 45°F 3°C / 37°F
Humidity Altimeter Pressure
76% 30.04" Hg 1017.1 hPa